Time;durP1;ratioP1;P1;durP2;ratioP2;P2;SDS_P1;SDS_P2;PMS_P1;PMS_P2;Temp;Humidity;BMP_temperature;BMP_pressure;BME280_temperature;BME280_humidity;BME280_pressure;Samples;Min_cycle;Max_cycle;Signal;HPM_P1;HPM_P2
2021/07/09 00:01:49;;;;;;;1.67;1.58;;;23.20;66.40;;;;;;5067489;28;20111;-29
2021/07/09 00:04:15;;;;;;;1.88;1.77;;;23.20;66.30;;;;;;5068825;28;20052;-30
2021/07/09 00:06:41;;;;;;;1.45;1.38;;;23.20;66.40;;;;;;5069071;28;20087;-28
2021/07/09 00:09:07;;;;;;;1.50;1.40;;;23.20;66.40;;;;;;5069527;28;20099;-26
2021/07/09 00:11:34;;;;;;;1.40;1.38;;;23.20;66.40;;;;;;5067509;28;20136;-33
2021/07/09 00:14:00;;;;;;;1.50;1.40;;;23.20;66.50;;;;;;5062410;28;20029;-29
2021/07/09 00:16:26;;;;;;;1.35;1.25;;;23.20;66.40;;;;;;5041053;28;20028;-33
2021/07/09 00:18:51;;;;;;;2.22;1.33;;;23.20;66.30;;;;;;5056740;28;20029;-31
2021/07/09 00:21:17;;;;;;;1.25;1.25;;;23.10;66.50;;;;;;5056098;28;20013;-32
2021/07/09 00:23:43;;;;;;;1.55;1.45;;;23.10;66.30;;;;;;5066490;28;20028;-28
2021/07/09 00:26:09;;;;;;;1.40;1.30;;;23.20;67.00;;;;;;5049150;28;20576;-32
2021/07/09 00:28:35;;;;;;;1.65;1.55;;;23.10;66.30;;;;;;5066671;28;20024;-30
2021/07/09 00:31:00;;;;;;;3.95;1.63;;;23.20;66.40;;;;;;5069598;28;20090;-30
2021/07/09 00:33:26;;;;;;;1.60;1.50;;;23.10;66.30;;;;;;5054247;28;20075;-28
2021/07/09 00:35:52;;;;;;;1.42;1.33;;;23.10;66.40;;;;;;5057780;28;20021;-29
2021/07/09 00:38:17;;;;;;;1.30;1.20;;;23.10;66.40;;;;;;5064948;28;20382;-27
2021/07/09 00:40:43;;;;;;;1.48;1.38;;;23.10;66.50;;;;;;5066642;28;20530;-33
2021/07/09 00:43:08;;;;;;;1.50;1.40;;;23.20;66.40;;;;;;5066282;28;20025;-29
2021/07/09 00:45:34;;;;;;;1.77;1.67;;;23.10;66.30;;;;;;5070837;28;20489;-27
2021/07/09 00:47:59;;;;;;;1.58;1.48;;;23.10;66.40;;;;;;5068572;28;20115;-30
2021/07/09 00:50:25;;;;;;;1.23;1.23;;;23.00;66.40;;;;;;5066362;28;20496;-33
2021/07/09 00:52:51;;;;;;;1.92;1.40;;;23.10;66.50;;;;;;5066734;28;20093;-31
2021/07/09 00:55:16;;;;;;;1.35;1.25;;;23.10;66.30;;;;;;5064894;28;20027;-28
2021/07/09 00:57:44;;;;;;;7.00;1.40;;;23.00;66.40;;;;;;5055024;28;20516;-31
2021/07/09 01:00:11;;;;;;;1.50;1.40;;;23.10;66.50;;;;;;5021792;28;20448;-27
2021/07/09 01:02:37;;;;;;;1.38;1.27;;;23.00;66.50;;;;;;5040026;28;20043;-26
2021/07/09 01:05:07;;;;;;;1.20;1.20;;;23.10;66.40;;;;;;5057973;28;20029;-28
2021/07/09 01:07:32;;;;;;;1.50;1.40;;;23.00;66.30;;;;;;5057440;28;20547;-29
2021/07/09 01:09:58;;;;;;;2.78;1.40;;;23.00;66.40;;;;;;5056270;28;20086;-26
2021/07/09 01:12:23;;;;;;;1.45;1.35;;;23.00;66.40;;;;;;5054183;28;20032;-29
2021/07/09 01:14:49;;;;;;;1.60;1.50;;;23.00;66.40;;;;;;5056859;28;20025;-33
2021/07/09 01:17:14;;;;;;;2.97;1.15;;;23.00;66.50;;;;;;5046862;28;20032;-27
2021/07/09 01:19:40;;;;;;;1.40;1.30;;;23.00;66.60;;;;;;5065301;28;20115;-30
2021/07/09 01:22:07;;;;;;;1.45;1.35;;;23.00;66.50;;;;;;5048045;28;20454;-27
2021/07/09 01:24:36;;;;;;;1.10;1.10;;;23.00;66.50;;;;;;5070358;28;20495;-33
2021/07/09 01:27:01;;;;;;;1.45;1.35;;;23.00;66.50;;;;;;5035167;28;20028;-28
2021/07/09 01:29:27;;;;;;;1.50;1.40;;;23.00;66.60;;;;;;5065669;28;20029;-30
2021/07/09 01:31:53;;;;;;;1.25;1.20;;;23.00;66.60;;;;;;5062147;28;20460;-30
2021/07/09 01:34:18;;;;;;;1.30;1.20;;;23.00;66.50;;;;;;5039369;28;20025;-33
2021/07/09 01:36:44;;;;;;;0.93;0.93;;;23.00;66.60;;;;;;5054380;28;20486;-34
2021/07/09 01:39:10;;;;;;;1.30;1.23;;;23.00;66.60;;;;;;5054436;28;20107;-32
2021/07/09 01:41:35;;;;;;;1.20;1.20;;;23.00;66.70;;;;;;5057379;28;20036;-30
2021/07/09 01:44:02;;;;;;;1.30;1.30;;;23.00;66.70;;;;;;5039245;28;20500;-29
2021/07/09 01:46:27;;;;;;;1.55;1.45;;;23.00;66.80;;;;;;5039735;28;20458;-34
2021/07/09 01:48:53;;;;;;;1.27;1.27;;;23.00;66.70;;;;;;5054602;28;20024;-34
2021/07/09 01:51:19;;;;;;;1.40;1.33;;;23.00;66.70;;;;;;5053047;28;20506;-28
2021/07/09 01:53:45;;;;;;;1.30;1.20;;;23.00;66.70;;;;;;5055891;28;20025;-27
2021/07/09 01:56:10;;;;;;;1.17;1.17;;;22.90;66.80;;;;;;5063076;28;20040;-32
2021/07/09 01:58:36;;;;;;;1.33;1.30;;;22.90;67.40;;;;;;5064519;28;20027;-27
2021/07/09 02:01:01;;;;;;;1.27;1.20;;;22.90;66.70;;;;;;5065760;28;20529;-35
2021/07/09 02:03:27;;;;;;;1.17;1.17;;;22.90;66.70;;;;;;5069087;28;20021;-31
2021/07/09 02:05:52;;;;;;;1.30;1.20;;;22.90;66.80;;;;;;5067208;28;20032;-31
2021/07/09 02:08:18;;;;;;;1.23;1.23;;;22.90;66.70;;;;;;5064879;28;20020;-27
2021/07/09 02:10:44;;;;;;;1.20;1.20;;;22.90;66.60;;;;;;5059101;28;20057;-27
2021/07/09 02:13:10;;;;;;;1.30;1.30;;;22.90;66.80;;;;;;5055758;28;20123;-30
2021/07/09 02:15:40;;;;;;;1.20;1.20;;;22.90;66.70;;;;;;5034982;28;20025;-30
2021/07/09 02:18:06;;;;;;;1.02;1.02;;;22.90;66.60;;;;;;5064059;28;20086;-29
2021/07/09 02:20:32;;;;;;;1.10;1.10;;;22.90;66.70;;;;;;5065446;28;20480;-28
2021/07/09 02:22:58;;;;;;;1.13;1.13;;;22.90;66.70;;;;;;5064847;28;20650;-29
2021/07/09 02:25:24;;;;;;;1.27;1.23;;;22.90;66.60;;;;;;5064651;28;20377;-29
2021/07/09 02:27:50;;;;;;;1.13;1.13;;;22.90;66.70;;;;;;5068195;28;20017;-27
2021/07/09 02:30:17;;;;;;;1.13;1.13;;;22.90;66.70;;;;;;5054018;28;20033;-28
2021/07/09 02:32:43;;;;;;;1.33;1.27;;;22.90;66.70;;;;;;5055600;28;20037;-29
2021/07/09 02:35:11;;;;;;;1.10;1.10;;;22.90;66.70;;;;;;5062219;28;20047;-29
2021/07/09 02:37:37;;;;;;;1.00;1.00;;;22.90;66.70;;;;;;5064688;28;20086;-30
2021/07/09 02:40:04;;;;;;;1.27;1.27;;;22.90;66.60;;;;;;5047055;28;20477;-33
2021/07/09 02:42:30;;;;;;;1.10;1.10;;;22.90;66.70;;;;;;5069251;28;20098;-30
2021/07/09 02:44:55;;;;;;;1.35;1.25;;;22.90;66.70;;;;;;5066884;28;20393;-31
2021/07/09 02:47:21;;;;;;;1.30;1.30;;;22.90;66.80;;;;;;5064818;28;20444;-32
2021/07/09 02:49:46;;;;;;;0.90;0.90;;;22.90;66.80;;;;;;5062658;28;20043;-29
2021/07/09 02:52:12;;;;;;;1.10;1.10;;;22.90;66.80;;;;;;5046739;28;20025;-29
2021/07/09 02:54:38;;;;;;;1.40;1.30;;;22.90;66.80;;;;;;5068421;28;20464;-27
2021/07/09 02:57:03;;;;;;;0.95;0.95;;;22.90;66.90;;;;;;5067197;28;20103;-29
2021/07/09 02:59:29;;;;;;;1.30;1.20;;;22.90;66.90;;;;;;5064606;28;20024;-28
2021/07/09 03:01:55;;;;;;;1.23;1.23;;;22.90;66.90;;;;;;5064921;28;20393;-27
2021/07/09 03:04:20;;;;;;;1.05;1.05;;;22.80;66.80;;;;;;5064232;28;20024;-28
2021/07/09 03:06:46;;;;;;;2.97;1.23;;;22.90;66.90;;;;;;5067835;28;20067;-29
2021/07/09 03:09:11;;;;;;;1.30;1.30;;;22.90;66.90;;;;;;5053653;28;20599;-35
2021/07/09 03:11:38;;;;;;;1.40;1.30;;;22.90;66.90;;;;;;5059472;28;20052;-26
2021/07/09 03:14:04;;;;;;;2.45;1.40;;;22.80;66.90;;;;;;5065014;28;20033;-26
2021/07/09 03:16:30;;;;;;;1.30;1.20;;;22.80;66.80;;;;;;5068478;28;20031;-37
2021/07/09 03:18:55;;;;;;;1.35;1.35;;;22.90;66.80;;;;;;5069172;28;20025;-27
2021/07/09 03:21:21;;;;;;;1.08;1.08;;;22.90;66.90;;;;;;5071284;28;20493;-30
2021/07/09 03:23:46;;;;;;;2.97;1.10;;;22.80;66.80;;;;;;5069939;28;20027;-28
2021/07/09 03:26:12;;;;;;;0.90;0.90;;;22.90;67.70;;;;;;5067499;28;20024;-29
2021/07/09 03:28:38;;;;;;;1.00;0.98;;;22.80;66.80;;;;;;5066598;28;20040;-34
2021/07/09 03:31:03;;;;;;;1.48;1.38;;;22.80;66.90;;;;;;5066542;28;20076;-31
2021/07/09 03:33:30;;;;;;;1.20;1.20;;;22.90;66.90;;;;;;5071649;28;20037;-28
2021/07/09 03:35:55;;;;;;;1.08;1.08;;;22.80;66.90;;;;;;5070130;28;20027;-32
2021/07/09 03:38:21;;;;;;;1.13;1.13;;;22.80;66.80;;;;;;5067363;28;20032;-28
2021/07/09 03:40:47;;;;;;;1.50;1.40;;;22.80;66.90;;;;;;5067880;28;20025;-26
2021/07/09 03:43:12;;;;;;;1.10;1.10;;;22.80;66.90;;;;;;5067479;28;20025;-25
2021/07/09 03:45:38;;;;;;;1.17;1.17;;;22.80;66.90;;;;;;5044539;28;20037;-26
2021/07/09 03:48:04;;;;;;;1.50;1.40;;;22.80;67.00;;;;;;5057333;28;20040;-29
2021/07/09 03:50:30;;;;;;;1.00;1.00;;;22.80;66.90;;;;;;5059216;28;20498;-33
2021/07/09 03:52:56;;;;;;;1.25;1.25;;;22.80;66.80;;;;;;5056676;28;20052;-25
2021/07/09 03:55:21;;;;;;;1.65;1.55;;;22.80;66.80;;;;;;5059358;28;20017;-27
2021/07/09 03:57:47;;;;;;;1.13;1.13;;;22.80;66.80;;;;;;5056852;28;20126;-25
2021/07/09 04:00:14;;;;;;;1.13;1.13;;;22.80;66.80;;;;;;5056163;28;20025;-26
2021/07/09 04:02:39;;;;;;;1.30;1.20;;;22.80;66.80;;;;;;5058461;28;20033;-25
2021/07/09 04:05:05;;;;;;;1.17;1.17;;;22.80;66.70;;;;;;5065410;28;20032;-29
2021/07/09 04:07:31;;;;;;;1.20;1.20;;;22.80;66.70;;;;;;5066709;28;20024;-25
2021/07/09 04:09:57;;;;;;;1.27;1.27;;;22.80;66.70;;;;;;5056412;28;20041;-30
2021/07/09 04:12:22;;;;;;;1.40;1.40;;;22.80;67.60;;;;;;5055697;28;20052;-33
2021/07/09 04:14:48;;;;;;;1.13;1.13;;;22.80;66.90;;;;;;5057902;28;20021;-31
2021/07/09 04:17:13;;;;;;;1.15;1.15;;;22.80;66.90;;;;;;5058848;28;20033;-32
2021/07/09 04:19:39;;;;;;;1.15;1.15;;;22.80;67.00;;;;;;5058418;28;20037;-33
2021/07/09 04:22:05;;;;;;;1.23;1.23;;;22.80;66.90;;;;;;5058487;28;20036;-30
2021/07/09 04:24:30;;;;;;;1.00;1.00;;;22.80;66.90;;;;;;5054283;28;20048;-27
2021/07/09 04:26:56;;;;;;;1.45;1.35;;;22.80;67.00;;;;;;5057811;28;20028;-30
2021/07/09 04:29:22;;;;;;;1.30;1.23;;;22.70;66.90;;;;;;5058273;28;20025;-38
2021/07/09 04:31:47;;;;;;;1.40;1.40;;;22.70;67.00;;;;;;5062243;28;20060;-28
2021/07/09 04:34:13;;;;;;;1.35;1.35;;;22.70;66.90;;;;;;5058446;28;20025;-30
2021/07/09 04:36:39;;;;;;;1.83;1.30;;;22.70;66.90;;;;;;5055020;28;20480;-31
2021/07/09 04:39:04;;;;;;;1.10;1.10;;;22.80;67.10;;;;;;5056461;28;20020;-32
2021/07/09 04:41:30;;;;;;;1.20;1.20;;;22.70;67.10;;;;;;5035478;28;20029;-29
2021/07/09 04:43:55;;;;;;;1.05;1.05;;;22.70;67.20;;;;;;5066463;28;20025;-25
2021/07/09 04:46:21;;;;;;;1.10;1.00;;;22.70;67.20;;;;;;5067692;28;20020;-29
2021/07/09 04:48:46;;;;;;;1.30;1.25;;;22.70;67.20;;;;;;5055428;28;20036;-27
2021/07/09 04:51:12;;;;;;;1.98;1.13;;;22.70;67.10;;;;;;5055824;28;20510;-30
2021/07/09 04:53:38;;;;;;;0.95;0.95;;;22.70;67.20;;;;;;5057689;28;20040;-28
2021/07/09 04:56:03;;;;;;;1.02;1.02;;;22.70;67.20;;;;;;5058279;28;20025;-29
2021/07/09 04:58:29;;;;;;;1.20;1.20;;;22.70;67.20;;;;;;5057516;28;20083;-30
2021/07/09 05:00:54;;;;;;;1.08;1.08;;;22.70;67.30;;;;;;5056558;28;20074;-27
2021/07/09 05:03:20;;;;;;;1.10;1.10;;;22.70;67.40;;;;;;5054741;28;20104;-28
2021/07/09 05:05:46;;;;;;;1.17;1.17;;;22.70;67.30;;;;;;5057077;28;20087;-33
2021/07/09 05:08:11;;;;;;;0.85;0.85;;;22.70;67.30;;;;;;5057361;28;20573;-26
2021/07/09 05:10:37;;;;;;;1.10;1.10;;;22.70;67.20;;;;;;5059022;28;20040;-32
2021/07/09 05:13:07;;;;;;;1.20;1.10;;;22.70;67.30;;;;;;5061959;28;20187;-29
2021/07/09 05:15:33;;;;;;;1.13;1.13;;;22.70;67.30;;;;;;5054820;28;20052;-33
2021/07/09 05:17:59;;;;;;;1.00;1.00;;;22.70;67.30;;;;;;5068221;28;20029;-30
2021/07/09 05:20:24;;;;;;;1.30;1.30;;;22.70;67.30;;;;;;5065655;28;20089;-32
2021/07/09 05:22:50;;;;;;;0.98;0.98;;;22.70;67.30;;;;;;5065940;28;20032;-29
2021/07/09 05:25:16;;;;;;;1.20;1.20;;;22.70;67.40;;;;;;5067714;28;20031;-28
2021/07/09 05:27:42;;;;;;;1.15;1.15;;;22.70;68.10;;;;;;5054088;28;20433;-27
2021/07/09 05:30:08;;;;;;;1.20;1.20;;;22.70;67.30;;;;;;5055293;28;20061;-33
2021/07/09 05:32:33;;;;;;;1.08;1.08;;;22.70;67.40;;;;;;5065562;28;20070;-26
2021/07/09 05:34:59;;;;;;;1.35;1.35;;;22.70;67.30;;;;;;5059897;28;20057;-32
2021/07/09 05:37:25;;;;;;;1.17;1.17;;;22.60;67.40;;;;;;5057564;28;20552;-27
2021/07/09 05:39:51;;;;;;;1.10;1.10;;;22.70;67.50;;;;;;5057934;28;20398;-28
2021/07/09 05:42:16;;;;;;;1.33;1.33;;;22.70;67.30;;;;;;5054589;28;20374;-29
2021/07/09 05:44:43;;;;;;;1.00;1.00;;;22.70;67.30;;;;;;5038304;28;20379;-28
2021/07/09 05:47:09;;;;;;;1.23;1.17;;;22.70;67.30;;;;;;5057451;28;20065;-27
2021/07/09 05:49:35;;;;;;;2.28;1.65;;;22.70;67.30;;;;;;5039922;28;20032;-31
2021/07/09 05:52:01;;;;;;;1.02;1.02;;;22.70;67.30;;;;;;5048311;28;20044;-29
2021/07/09 05:54:26;;;;;;;1.10;1.10;;;22.70;67.30;;;;;;5064329;28;20028;-35
2021/07/09 05:56:52;;;;;;;1.15;1.15;;;22.70;67.30;;;;;;5069844;28;20060;-29
2021/07/09 05:59:17;;;;;;;1.10;1.10;;;22.70;67.50;;;;;;5047037;28;20374;-35
2021/07/09 06:01:43;;;;;;;1.40;1.40;;;22.70;67.50;;;;;;5067268;28;20597;-32
2021/07/09 06:04:09;;;;;;;1.10;1.10;;;22.70;67.40;;;;;;5062362;28;20556;-29
2021/07/09 06:06:34;;;;;;;1.85;1.10;;;22.70;67.50;;;;;;5061576;28;20033;-29
2021/07/09 06:09:00;;;;;;;0.95;0.95;;;22.70;67.40;;;;;;5066498;28;20023;-31
2021/07/09 06:11:27;;;;;;;0.90;0.90;;;22.70;67.40;;;;;;5064279;28;20052;-35
2021/07/09 06:13:55;;;;;;;1.30;1.20;;;22.70;67.50;;;;;;5062732;28;20033;-29
2021/07/09 06:16:21;;;;;;;1.20;1.20;;;22.70;67.40;;;;;;5063989;28;20047;-32
2021/07/09 06:18:46;;;;;;;1.30;1.23;;;22.70;67.50;;;;;;5066689;28;20489;-30
2021/07/09 06:21:12;;;;;;;1.58;1.48;;;22.70;67.30;;;;;;5070226;28;20031;-34
2021/07/09 06:23:37;;;;;;;1.38;1.30;;;22.70;67.40;;;;;;5064688;28;20166;-27
2021/07/09 06:26:03;;;;;;;1.00;1.00;;;22.70;67.50;;;;;;5067083;28;20226;-30
2021/07/09 06:28:29;;;;;;;1.13;1.13;;;22.70;67.30;;;;;;5069093;28;20064;-34
2021/07/09 06:30:54;;;;;;;1.48;1.38;;;22.70;67.40;;;;;;5067418;28;20025;-28
2021/07/09 06:33:20;;;;;;;1.30;1.30;;;22.70;67.30;;;;;;5068390;28;20036;-33
2021/07/09 06:35:45;;;;;;;1.27;1.27;;;22.70;67.50;;;;;;5066094;28;20025;-30
2021/07/09 06:38:11;;;;;;;1.33;1.33;;;22.70;67.50;;;;;;5059429;28;20021;-32
2021/07/09 06:40:37;;;;;;;0.98;0.98;;;22.70;67.50;;;;;;5058448;28;20401;-27
2021/07/09 06:43:03;;;;;;;1.27;1.27;;;22.70;67.60;;;;;;5065150;28;20545;-29
2021/07/09 06:45:28;;;;;;;1.35;1.35;;;22.70;67.60;;;;;;5068372;28;20035;-33
2021/07/09 06:47:54;;;;;;;1.00;1.00;;;22.60;67.50;;;;;;5070625;28;20040;-33
2021/07/09 06:50:19;;;;;;;1.30;1.30;;;22.70;67.50;;;;;;5061763;28;20024;-30
2021/07/09 06:52:45;;;;;;;1.40;1.30;;;22.70;67.60;;;;;;5062885;28;20054;-30
2021/07/09 06:55:12;;;;;;;1.30;1.30;;;22.70;67.50;;;;;;5066069;28;20091;-33
2021/07/09 06:57:38;;;;;;;1.98;1.33;;;22.70;67.60;;;;;;5050467;28;20027;-28
2021/07/09 07:00:06;;;;;;;1.50;1.40;;;22.70;67.60;;;;;;5071202;28;20021;-28
2021/07/09 07:02:33;;;;;;;1.30;1.20;;;22.60;67.60;;;;;;5055332;28;20033;-34
2021/07/09 07:05:02;;;;;;;1.15;1.15;;;22.70;67.60;;;;;;5051167;28;20025;-30
2021/07/09 07:07:28;;;;;;;1.63;1.52;;;22.60;67.50;;;;;;5060460;28;20035;-33
2021/07/09 07:09:54;;;;;;;1.40;1.40;;;22.70;67.70;;;;;;5058125;28;20037;-30
2021/07/09 07:12:19;;;;;;;1.45;1.35;;;22.70;68.50;;;;;;5057460;28;20382;-30
2021/07/09 07:14:45;;;;;;;1.33;1.33;;;22.70;67.70;;;;;;5062570;28;20024;-28
2021/07/09 07:17:11;;;;;;;1.58;1.48;;;22.70;67.60;;;;;;5067782;28;20102;-29
2021/07/09 07:19:36;;;;;;;1.38;1.38;;;22.70;67.50;;;;;;5068106;28;20031;-28
2021/07/09 07:22:02;;;;;;;1.50;1.50;;;22.70;67.60;;;;;;5070480;28;20107;-31
2021/07/09 07:24:29;;;;;;;1.50;1.45;;;22.70;67.60;;;;;;5072696;28;20551;-31
2021/07/09 07:26:55;;;;;;;1.65;1.55;;;22.70;67.90;;;;;;5070273;28;20028;-27
2021/07/09 07:29:21;;;;;;;1.63;1.50;;;22.70;67.60;;;;;;5071627;28;20028;-28
2021/07/09 07:31:46;;;;;;;1.48;1.45;;;22.70;67.60;;;;;;5068879;28;20060;-28
2021/07/09 07:34:12;;;;;;;1.85;1.75;;;22.70;67.70;;;;;;5068316;28;20436;-29
2021/07/09 07:36:38;;;;;;;2.17;2.08;;;22.70;68.40;;;;;;5067866;28;20038;-28
2021/07/09 07:39:04;;;;;;;2.45;2.25;;;22.80;67.70;;;;;;5067890;28;20037;-33
2021/07/09 07:41:29;;;;;;;2.40;2.30;;;22.80;67.60;;;;;;4710496;28;9999776;-28
2021/07/09 07:43:55;;;;;;;2.10;2.00;;;22.80;67.80;;;;;;5062582;28;20512;-32
2021/07/09 07:46:21;;;;;;;2.08;1.98;;;22.80;67.80;;;;;;5065020;28;20028;-31
2021/07/09 07:48:46;;;;;;;2.20;2.10;;;22.80;68.00;;;;;;5059305;28;20028;-30
2021/07/09 07:51:12;;;;;;;1.80;1.75;;;22.70;68.10;;;;;;5062706;28;20032;-32
2021/07/09 07:53:37;;;;;;;2.33;2.22;;;22.80;68.40;;;;;;5065794;28;20458;-36
2021/07/09 07:56:04;;;;;;;2.03;1.92;;;22.80;68.30;;;;;;5062247;28;20025;-34
2021/07/09 07:58:29;;;;;;;2.13;2.03;;;22.80;68.20;;;;;;5066190;28;20028;-32
2021/07/09 08:00:55;;;;;;;1.95;1.85;;;22.90;68.00;;;;;;5065737;28;20079;-30
2021/07/09 08:03:20;;;;;;;1.85;1.75;;;22.90;67.70;;;;;;5066510;28;20059;-31
2021/07/09 08:05:46;;;;;;;1.75;1.65;;;22.90;68.40;;;;;;5060139;28;20025;-32
2021/07/09 08:08:12;;;;;;;1.70;1.60;;;22.90;68.50;;;;;;5061888;28;20186;-33
2021/07/09 08:10:37;;;;;;;1.80;1.70;;;22.90;68.60;;;;;;5058608;28;20048;-33
2021/07/09 08:13:03;;;;;;;2.13;2.03;;;22.90;68.80;;;;;;5053938;28;20097;-40
2021/07/09 08:15:28;;;;;;;1.80;1.70;;;22.90;68.90;;;;;;5051447;28;20538;-29
2021/07/09 08:17:54;;;;;;;1.95;1.73;;;22.90;68.80;;;;;;5058597;28;20041;-29
2021/07/09 08:20:20;;;;;;;2.50;1.35;;;22.90;68.80;;;;;;5060288;28;20489;-31
2021/07/09 08:22:45;;;;;;;2.15;1.85;;;22.90;68.60;;;;;;5061407;28;20033;-31
2021/07/09 08:25:11;;;;;;;1.40;1.38;;;22.90;68.50;;;;;;5053276;28;20056;-30
2021/07/09 08:27:40;;;;;;;1.67;1.58;;;23.00;68.60;;;;;;5062013;28;20045;-34
2021/07/09 08:30:07;;;;;;;1.60;1.50;;;23.00;68.50;;;;;;5057187;28;20028;-29
2021/07/09 08:32:33;;;;;;;1.85;1.67;;;23.00;68.20;;;;;;5060114;28;20079;-30
2021/07/09 08:34:59;;;;;;;1.52;1.42;;;23.00;68.30;;;;;;5060545;28;20603;-34
2021/07/09 08:37:25;;;;;;;1.45;1.45;;;23.00;68.40;;;;;;5061475;28;20044;-28
2021/07/09 08:39:51;;;;;;;1.60;1.50;;;23.00;68.40;;;;;;5065565;28;20024;-30
2021/07/09 08:42:16;;;;;;;1.33;1.30;;;23.00;68.40;;;;;;5064746;28;20021;-34
2021/07/09 08:44:42;;;;;;;1.50;1.40;;;23.00;68.40;;;;;;5060954;28;20111;-31
2021/07/09 08:47:08;;;;;;;1.50;1.40;;;23.00;68.40;;;;;;5056034;28;20033;-33
2021/07/09 08:49:33;;;;;;;1.40;1.40;;;23.00;68.20;;;;;;5055922;28;20028;-32
2021/07/09 08:51:59;;;;;;;1.35;1.27;;;23.00;68.20;;;;;;5054779;28;20028;-31
2021/07/09 08:54:25;;;;;;;2.40;1.50;;;23.00;68.20;;;;;;5055845;28;20553;-34
2021/07/09 08:56:51;;;;;;;1.20;1.20;;;23.00;68.20;;;;;;5053821;28;20071;-34
2021/07/09 08:59:18;;;;;;;1.45;1.40;;;23.00;68.20;;;;;;5051846;28;20017;-28
2021/07/09 09:01:58;;;;;;;1.42;1.33;;;23.00;68.00;;;;;;5054434;28;20658;-28
2021/07/09 09:04:28;;;;;;;1.23;1.13;;;23.00;68.30;;;;;;5059436;28;20497;-32
2021/07/09 09:07:27;;;;;;;1.30;1.20;;;23.10;68.10;;;;;;5062980;28;20035;-30
2021/07/09 09:09:52;;;;;;;1.27;0.90;;;23.00;67.80;;;;;;5040350;28;20413;-30
2021/07/09 09:12:18;;;;;;;1.92;1.17;;;23.00;67.90;;;;;;5063179;28;20048;-32
2021/07/09 09:14:46;;;;;;;1.33;1.23;;;23.10;67.80;;;;;;5055874;28;20029;-29
2021/07/09 09:17:24;;;;;;;3.00;1.20;;;23.10;67.70;;;;;;5041796;28;20592;-36
2021/07/09 09:20:05;;;;;;;0.90;0.90;;;23.10;67.60;;;;;;5065735;28;20021;-31
2021/07/09 09:22:32;;;;;;;1.27;1.27;;;23.10;67.70;;;;;;5066114;28;20489;-40
2021/07/09 09:25:00;;;;;;;1.10;1.10;;;23.10;67.50;;;;;;5075231;28;20017;-30
2021/07/09 09:27:26;;;;;;;1.38;1.15;;;23.10;67.60;;;;;;5065437;28;20037;-33
2021/07/09 09:29:51;;;;;;;0.90;0.90;;;23.10;67.60;;;;;;5065406;28;20035;-32
2021/07/09 09:32:17;;;;;;;1.10;1.00;;;23.20;67.30;;;;;;5069359;28;20522;-30
2021/07/09 09:34:47;;;;;;;1.10;1.10;;;23.10;67.40;;;;;;5063726;28;20044;-35
2021/07/09 09:37:17;;;;;;;0.98;0.98;;;23.10;67.20;;;;;;5060219;28;20812;-34
2021/07/09 09:39:43;;;;;;;4.70;1.40;;;23.10;67.40;;;;;;5054387;28;20025;-34
2021/07/09 09:42:21;;;;;;;1.00;1.00;;;23.20;68.30;;;;;;5060097;28;20158;-32
2021/07/09 09:45:00;;;;;;;1.00;1.00;;;23.20;67.40;;;;;;5057222;28;20059;-29
2021/07/09 09:47:27;;;;;;;1.33;1.23;;;23.20;67.30;;;;;;5058410;28;20040;-33
2021/07/09 09:49:54;;;;;;;1.55;0.90;;;23.20;67.30;;;;;;5064835;28;20032;-29
2021/07/09 09:52:36;;;;;;;1.00;1.00;;;23.20;67.20;;;;;;5062485;28;20071;-34
2021/07/09 09:55:08;;;;;;;1.08;0.98;;;23.20;67.30;;;;;;5052301;28;20025;-33
2021/07/09 09:57:34;;;;;;;0.98;0.90;;;23.20;67.20;;;;;;5049500;28;20038;-30
2021/07/09 10:00:00;;;;;;;1.40;0.90;;;23.20;67.30;;;;;;5062396;28;20028;-35
2021/07/09 10:02:26;;;;;;;0.98;0.98;;;23.20;67.20;;;;;;5044352;28;20037;-33
2021/07/09 10:04:54;;;;;;;1.05;0.95;;;23.30;67.10;;;;;;5061346;28;20020;-33
2021/07/09 10:07:20;;;;;;;0.70;0.70;;;23.20;67.10;;;;;;5059987;28;20032;-34
2021/07/09 10:09:46;;;;;;;1.08;0.90;;;23.20;67.10;;;;;;5064690;28;20045;-29
2021/07/09 10:12:11;;;;;;;1.38;0.80;;;23.20;66.70;;;;;;5064483;28;20561;-32
2021/07/09 10:14:38;;;;;;;0.90;0.80;;;23.20;66.30;;;;;;5034173;28;20040;-31
2021/07/09 10:17:08;;;;;;;0.70;0.70;;;23.20;66.10;;;;;;5056763;28;20040;-28
2021/07/09 10:19:38;;;;;;;0.80;0.80;;;23.30;66.00;;;;;;5054029;28;20493;-30
2021/07/09 10:22:04;;;;;;;0.80;0.80;;;23.20;65.70;;;;;;5055304;28;20028;-31
2021/07/09 10:24:30;;;;;;;0.70;0.70;;;23.30;65.90;;;;;;5054175;28;20025;-27
2021/07/09 10:26:56;;;;;;;0.80;0.80;;;23.20;65.00;;;;;;5029093;28;20439;-27
2021/07/09 10:29:26;;;;;;;0.85;0.85;;;23.20;65.00;;;;;;5037326;28;20017;-33
2021/07/09 10:31:53;;;;;;;0.50;0.50;;;23.20;65.00;;;;;;5058600;28;20044;-30
2021/07/09 10:34:28;;;;;;;0.60;0.60;;;23.20;64.80;;;;;;5053512;28;20025;-31
2021/07/09 10:37:00;;;;;;;0.70;0.70;;;23.20;65.10;;;;;;5061264;28;20041;-34
2021/07/09 10:39:41;;;;;;;0.60;0.60;;;23.20;65.10;;;;;;5064963;28;20090;-36
2021/07/09 10:42:31;;;;;;;0.70;0.68;;;23.30;65.30;;;;;;5062513;28;20458;-31
2021/07/09 10:45:04;;;;;;;0.50;0.50;;;23.30;65.10;;;;;;5064345;28;20400;-29
2021/07/09 10:47:37;;;;;;;0.52;0.52;;;23.30;65.10;;;;;;5063545;28;20455;-35
2021/07/09 10:50:14;;;;;;;0.88;0.88;;;23.30;65.10;;;;;;5063990;28;20024;-30
2021/07/09 10:52:44;;;;;;;0.65;0.65;;;23.30;64.90;;;;;;5061337;28;20041;-29
2021/07/09 10:55:25;;;;;;;0.60;0.60;;;23.30;65.30;;;;;;5060859;28;20029;-32
2021/07/09 10:58:06;;;;;;;0.55;0.55;;;23.20;65.30;;;;;;5062284;28;20162;-32
2021/07/09 11:00:41;;;;;;;0.55;0.55;;;23.20;65.10;;;;;;5064234;28;20043;-34
2021/07/09 11:03:09;;;;;;;0.65;0.65;;;23.30;64.90;;;;;;5064613;28;20017;-30
2021/07/09 11:05:44;;;;;;;0.60;0.60;;;23.20;64.90;;;;;;5047308;28;20041;-30
2021/07/09 11:08:32;;;;;;;0.88;0.50;;;23.30;64.80;;;;;;5064477;28;20017;-31
2021/07/09 11:10:58;;;;;;;0.98;0.43;;;23.30;65.10;;;;;;5062580;28;20091;-31
2021/07/09 11:13:42;;;;;;;0.75;0.60;;;23.30;64.90;;;;;;5062300;28;20123;-28
2021/07/09 11:16:20;;;;;;;0.60;0.52;;;23.30;65.70;;;;;;5066769;28;20024;-33
2021/07/09 11:18:49;;;;;;;0.90;0.70;;;23.40;64.40;;;;;;5067788;28;20035;-31
2021/07/09 11:21:31;;;;;;;0.60;0.60;;;23.40;64.40;;;;;;5067307;28;20021;-32
2021/07/09 11:23:58;;;;;;;1.13;0.70;;;23.40;64.30;;;;;;5069298;28;20023;-30
2021/07/09 11:26:27;;;;;;;0.60;0.60;;;23.40;64.30;;;;;;5068562;28;20032;-33
2021/07/09 11:28:53;;;;;;;1.20;0.80;;;23.40;64.20;;;;;;5063792;28;20553;-32
2021/07/09 11:31:49;;;;;;;0.75;0.55;;;23.40;64.20;;;;;;5034958;28;20108;-33
2021/07/09 11:34:15;;;;;;;0.32;0.32;;;23.30;64.10;;;;;;5059431;28;20047;-29
2021/07/09 11:36:47;;;;;;;0.68;0.50;;;23.40;64.20;;;;;;5071666;28;20101;-37
2021/07/09 11:39:18;;;;;;;0.52;0.50;;;23.30;64.10;;;;;;5067817;28;20036;-29
2021/07/09 11:42:04;;;;;;;0.50;0.50;;;23.30;64.00;;;;;;5072029;28;20016;-27
2021/07/09 11:44:56;;;;;;;0.60;0.60;;;23.30;64.10;;;;;;5070813;28;20028;-34
2021/07/09 11:47:26;;;;;;;1.75;0.60;;;23.30;63.80;;;;;;5051114;28;20412;-29
2021/07/09 11:49:53;;;;;;;0.40;0.40;;;23.30;63.80;;;;;;5050031;28;20032;-32
2021/07/09 11:52:40;;;;;;;0.50;0.50;;;23.40;63.90;;;;;;5070717;28;20062;-32
2021/07/09 11:55:08;;;;;;;2.05;0.50;;;23.40;64.00;;;;;;5070487;28;20020;-30
2021/07/09 11:57:38;;;;;;;0.40;0.30;;;23.40;63.80;;;;;;5072684;28;20450;-31
2021/07/09 12:00:11;;;;;;;0.50;0.50;;;23.30;63.70;;;;;;5069948;28;20106;-32
2021/07/09 12:02:37;;;;;;;0.65;0.50;;;23.30;63.80;;;;;;5072476;28;20086;-32
2021/07/09 12:05:11;;;;;;;1.23;0.35;;;23.30;63.80;;;;;;5069897;28;20454;-32
2021/07/09 12:07:37;;;;;;;;;;;23.30;63.80;;;;;;5069293;28;20036;-34
2021/07/09 12:10:17;;;;;;;0.40;0.40;;;23.30;63.70;;;;;;5049820;28;20306;-36
2021/07/09 12:12:49;;;;;;;1.10;0.40;;;23.30;63.80;;;;;;5069493;28;20048;-32
2021/07/09 12:15:22;;;;;;;0.75;0.30;;;23.30;63.50;;;;;;5069084;28;20032;-38
2021/07/09 12:18:01;;;;;;;0.40;0.40;;;23.30;63.60;;;;;;5068965;28;20047;-32
2021/07/09 12:20:27;;;;;;;0.40;0.40;;;23.20;63.70;;;;;;5068798;28;20077;-29
2021/07/09 12:22:59;;;;;;;0.50;0.50;;;23.30;63.80;;;;;;5070256;28;20070;-29
2021/07/09 12:25:27;;;;;;;0.40;0.40;;;23.30;63.80;;;;;;5071227;28;20032;-36
2021/07/09 12:28:00;;;;;;;0.50;0.50;;;23.30;63.60;;;;;;5066185;28;20103;-32
2021/07/09 12:30:37;;;;;;;0.93;0.40;;;23.20;64.30;;;;;;5051657;28;20477;-29
2021/07/09 12:33:07;;;;;;;0.43;0.43;;;23.20;63.80;;;;;;5048456;28;20303;-30
2021/07/09 12:35:34;;;;;;;0.50;0.50;;;23.20;63.70;;;;;;5067049;28;20172;-40
2021/07/09 12:38:11;;;;;;;1.75;0.60;;;23.20;64.00;;;;;;5044827;28;20044;-27
2021/07/09 12:40:44;;;;;;;0.43;0.43;;;23.20;63.70;;;;;;5044358;28;20043;-38
2021/07/09 12:43:22;;;;;;;0.35;0.35;;;23.20;64.10;;;;;;5063577;28;20032;-29
2021/07/09 12:46:00;;;;;;;0.60;0.50;;;23.20;63.90;;;;;;5065362;28;20032;-29
2021/07/09 12:48:41;;;;;;;0.52;0.50;;;23.20;63.40;;;;;;5067509;28;20039;-27
2021/07/09 12:51:17;;;;;;;0.95;0.50;;;23.20;62.80;;;;;;5068308;28;20489;-28